Time;durP1;ratioP1;P1;durP2;ratioP2;P2;SDS_P1;SDS_P2;PMS_P1;PMS_P2;Temp;Humidity;BMP_temperature;BMP_pressure;BME280_temperature;BME280_humidity;BME280_pressure;Samples;Min_cycle;Max_cycle;Signal;HPM_P1;HPM_P2
2021/05/23 00:00:18;;;;;;;10.32;4.70;;;;;;;9.37;83.47;99789.22;1658467;85;25742;-75
2021/05/23 00:02:44;;;;;;;7.85;3.85;;;;;;;9.36;83.47;99782.86;1657820;85;25618;-74
2021/05/23 00:05:15;;;;;;;7.53;3.95;;;;;;;9.36;83.66;99778.48;1656746;85;25726;-74
2021/05/23 00:07:50;;;;;;;11.10;4.15;;;;;;;9.36;83.57;99788.08;1657885;85;25599;-74
2021/05/23 00:10:17;;;;;;;8.60;3.62;;;;;;;9.38;83.52;99786.11;1657234;85;25316;-74
2021/05/23 00:12:46;;;;;;;10.68;4.40;;;;;;;9.40;83.51;99781.55;1657946;85;25653;-74
2021/05/23 00:15:26;;;;;;;8.45;4.05;;;;;;;9.41;83.55;99795.73;1656622;85;26025;-72
2021/05/23 00:17:53;;;;;;;10.35;4.10;;;;;;;9.40;83.43;99784.96;1659010;85;25640;-73
2021/05/23 00:20:20;;;;;;;6.78;3.72;;;;;;;9.42;83.53;99782.20;1630153;85;26426;-72
2021/05/23 00:22:46;;;;;;;11.70;4.65;;;;;;;9.41;83.54;99784.00;1654333;85;25469;-73
2021/05/23 00:25:17;;;;;;;7.72;4.00;;;;;;;9.39;83.58;99789.06;1657292;85;25785;-73
2021/05/23 00:27:43;;;;;;;12.68;5.30;;;;;;;9.37;83.64;99785.30;1657426;85;25530;-73
2021/05/23 00:30:14;;;;;;;9.28;4.50;;;;;;;9.37;83.47;99789.22;1654201;85;25683;-73
2021/05/23 00:32:41;;;;;;;8.03;3.87;;;;;;;9.39;83.44;99785.95;1657092;85;25535;-72
2021/05/23 00:35:09;;;;;;;8.50;4.20;;;;;;;9.37;83.51;99784.50;1657443;85;25736;-75
2021/05/23 00:37:35;;;;;;;12.78;4.12;;;;;;;9.36;83.42;99789.38;1657828;85;25887;-75
2021/05/23 00:40:03;;;;;;;11.08;4.12;;;;;;;9.37;83.43;99787.91;1657069;85;25965;-75
2021/05/23 00:42:29;;;;;;;11.83;4.17;;;;;;;9.36;83.40;99794.13;1656058;85;25544;-74
2021/05/23 00:44:55;;;;;;;10.40;4.03;;;;;;;9.38;83.40;99799.96;1658072;85;25302;-75
2021/05/23 00:47:21;;;;;;;7.03;3.80;;;;;;;9.38;83.37;99790.02;1657457;85;25634;-74
2021/05/23 00:49:47;;;;;;;9.30;3.65;;;;;;;9.36;83.29;99790.68;1657516;85;25693;-74
2021/05/23 00:52:13;;;;;;;10.67;4.10;;;;;;;9.38;83.34;99793.94;1655777;85;32923;-74
2021/05/23 00:54:40;;;;;;;9.88;4.00;;;;;;;9.39;83.27;99792.97;1656155;85;25566;-74
2021/05/23 00:57:06;;;;;;;5.83;4.00;;;;;;;9.38;83.22;99794.75;1655405;85;25556;-74
2021/05/23 00:59:32;;;;;;;8.03;3.85;;;;;;;9.38;83.14;99795.24;1657852;85;25192;-73
2021/05/23 01:02:10;;;;;;;8.38;4.22;;;;;;;9.36;83.21;99803.25;1658204;85;25694;-73
2021/05/23 01:04:40;;;;;;;9.78;4.05;;;;;;;9.31;83.04;99805.06;1657426;85;25578;-73
2021/05/23 01:07:06;;;;;;;8.83;4.30;;;;;;;9.32;83.21;99804.56;1657650;85;25337;-74
2021/05/23 01:09:32;;;;;;;11.28;4.20;;;;;;;9.32;83.17;99805.87;1656827;85;25777;-75
2021/05/23 01:12:30;;;;;;;9.35;3.75;;;;;;;9.30;83.07;99808.66;1657655;85;25615;-74
2021/05/23 01:15:00;;;;;;;8.10;3.90;;;;;;;9.30;83.17;99814.34;1656711;85;25203;-73
2021/05/23 01:17:44;;;;;;;6.92;4.00;;;;;;;9.31;83.30;99810.77;1658152;85;25452;-73
2021/05/23 01:20:47;;;;;;;12.28;4.30;;;;;;;9.27;83.31;99815.50;1657192;85;25675;-73
2021/05/23 01:23:24;;;;;;;8.85;4.10;;;;;;;9.24;83.31;99815.84;1657696;85;25772;-73
2021/05/23 01:25:55;;;;;;;8.55;3.85;;;;;;;9.24;83.42;99814.53;1659144;85;25220;-73
2021/05/23 01:28:22;;;;;;;8.58;3.52;;;;;;;9.22;83.47;99811.77;1659671;85;25329;-73
2021/05/23 01:30:51;;;;;;;9.33;3.92;;;;;;;9.22;83.47;99811.77;1657428;85;25586;-73
2021/05/23 01:33:20;;;;;;;11.88;4.08;;;;;;;9.23;83.42;99809.01;1656117;85;25608;-74
2021/05/23 01:35:51;;;;;;;14.35;4.78;;;;;;;9.25;83.39;99813.57;1657354;85;25598;-74
2021/05/23 01:38:21;;;;;;;6.78;3.72;;;;;;;9.28;83.37;99813.73;1656207;85;25635;-74
2021/05/23 01:40:50;;;;;;;7.62;3.37;;;;;;;9.30;83.35;99815.65;1657995;85;25541;-74
2021/05/23 01:43:16;;;;;;;8.95;3.25;;;;;;;9.32;83.29;99815.80;1656828;85;26270;-74
2021/05/23 01:45:43;;;;;;;5.40;3.10;;;;;;;9.34;83.29;99806.02;1656033;85;25589;-74
2021/05/23 01:48:10;;;;;;;10.35;3.02;;;;;;;9.38;83.17;99818.22;1653622;85;26247;-74
2021/05/23 01:50:40;;;;;;;7.45;3.35;;;;;;;9.40;83.11;99818.06;1656099;85;25939;-75
2021/05/23 01:53:07;;;;;;;9.13;3.72;;;;;;;9.42;83.05;99813.00;1655721;85;25637;-74
2021/05/23 01:55:34;;;;;;;7.80;3.30;;;;;;;9.46;82.98;99811.66;1655350;85;25789;-75
2021/05/23 01:58:00;;;;;;;12.28;4.12;;;;;;;9.50;82.93;99814.26;1657673;85;25538;-74
2021/05/23 02:00:34;;;;;;;6.55;3.00;;;;;;;9.54;82.93;99814.22;1656923;85;26359;-74
2021/05/23 02:03:09;;;;;;;8.93;3.00;;;;;;;9.58;82.90;99813.91;1656531;85;25724;-73
2021/05/23 02:05:39;;;;;;;5.62;3.02;;;;;;;9.63;82.78;99818.92;1656911;85;25255;-72
2021/05/23 02:08:08;;;;;;;7.12;3.22;;;;;;;9.67;82.75;99824.60;1655642;85;25683;-74
2021/05/23 02:10:35;;;;;;;6.28;2.90;;;;;;;9.71;82.75;99824.56;1657756;85;25574;-74
2021/05/23 02:13:04;;;;;;;5.75;3.30;;;;;;;9.74;82.81;99828.16;1655660;85;25648;-74
2021/05/23 02:15:31;;;;;;;9.10;3.02;;;;;;;9.76;82.78;99828.27;1658860;85;25533;-75
2021/05/23 02:17:57;;;;;;;4.90;2.62;;;;;;;9.76;82.86;99840.52;1657896;85;25787;-75
2021/05/23 02:20:28;;;;;;;5.85;2.85;;;;;;;9.72;82.91;99837.95;1657589;85;25541;-76
2021/05/23 02:22:57;;;;;;;7.40;2.83;;;;;;;9.70;82.96;99842.02;1656306;85;25676;-75
2021/05/23 02:25:25;;;;;;;9.80;2.87;;;;;;;9.69;83.05;99847.43;1656628;85;26398;-75
2021/05/23 02:27:56;;;;;;;6.58;2.72;;;;;;;9.68;83.10;99857.03;1653114;85;25693;-75
2021/05/23 02:30:27;;;;;;;5.22;2.52;;;;;;;9.67;83.13;99848.89;1656499;85;25616;-75
2021/05/23 02:32:55;;;;;;;7.37;2.98;;;;;;;9.70;83.16;99858.98;1656337;85;25556;-74
2021/05/23 02:35:25;;;;;;;5.85;3.10;;;;;;;9.73;83.23;99864.35;1656180;85;25608;-74
2021/05/23 02:37:52;;;;;;;6.28;2.90;;;;;;;9.76;83.16;99856.17;1658625;85;25769;-74
2021/05/23 02:40:22;;;;;;;6.72;2.77;;;;;;;9.78;83.07;99856.83;1657557;85;25688;-75
2021/05/23 02:42:49;;;;;;;11.22;3.17;;;;;;;9.83;83.05;99855.02;1657095;85;25598;-74
2021/05/23 02:45:17;;;;;;;4.62;2.50;;;;;;;9.87;82.96;99856.28;1657147;85;25669;-74
2021/05/23 02:47:45;;;;;;;7.62;2.58;;;;;;;9.90;82.87;99858.54;1657070;85;25581;-73
2021/05/23 02:50:16;;;;;;;3.60;2.25;;;;;;;9.94;82.89;99849.39;1653958;85;26289;-74
2021/05/23 02:52:42;;;;;;;5.35;2.30;;;;;;;9.98;82.76;99854.10;1656442;85;25594;-73
2021/05/23 02:55:10;;;;;;;6.53;2.83;;;;;;;10.01;82.66;99859.44;1657344;85;26054;-75
2021/05/23 02:57:40;;;;;;;6.17;2.62;;;;;;;10.04;82.63;99855.67;1656790;85;26346;-74
2021/05/23 03:00:11;;;;;;;9.08;3.15;;;;;;;10.07;82.58;99856.66;1657924;85;25606;-74
2021/05/23 03:02:38;;;;;;;4.40;2.45;;;;;;;10.09;82.53;99859.38;1657739;85;25720;-73
2021/05/23 03:05:08;;;;;;;6.35;2.72;;;;;;;10.11;82.42;99861.34;1656532;85;25483;-73
2021/05/23 03:07:39;;;;;;;7.50;2.75;;;;;;;10.17;82.29;99861.94;1654994;85;30544;-74
2021/05/23 03:10:09;;;;;;;8.60;2.52;;;;;;;10.17;82.29;99861.94;1658277;85;25613;-73
2021/05/23 03:12:38;;;;;;;7.95;2.60;;;;;;;10.18;82.11;99863.58;1652354;85;25615;-73
2021/05/23 03:15:09;;;;;;;6.67;2.72;;;;;;;10.20;82.17;99862.92;1658694;85;25572;-73
2021/05/23 03:17:35;;;;;;;5.00;2.45;;;;;;;10.21;82.11;99859.81;1656655;85;25607;-73
2021/05/23 03:20:01;;;;;;;6.95;2.40;;;;;;;10.22;82.05;99857.00;1657582;85;25623;-73
2021/05/23 03:22:27;;;;;;;8.18;2.90;;;;;;;10.26;82.06;99868.41;1657547;85;34722;-73
2021/05/23 03:24:53;;;;;;;10.38;2.85;;;;;;;10.28;81.87;99866.47;1657894;85;25667;-73
2021/05/23 03:27:19;;;;;;;8.47;2.87;;;;;;;10.30;81.99;99866.61;1655640;85;25679;-73
2021/05/23 03:29:45;;;;;;;7.70;2.93;;;;;;;10.34;82.04;99874.91;1657944;85;26588;-73
2021/05/23 03:32:11;;;;;;;7.58;2.75;;;;;;;10.35;81.94;99868.71;1658829;85;25575;-73
2021/05/23 03:34:37;;;;;;;11.53;2.98;;;;;;;10.37;81.89;99874.58;1658465;85;34713;-73
2021/05/23 03:37:03;;;;;;;4.37;2.20;;;;;;;10.41;81.94;99873.23;1657561;85;25572;-73
2021/05/23 03:39:29;;;;;;;6.85;2.90;;;;;;;10.41;81.72;99871.92;1658401;85;25582;-73
2021/05/23 03:41:55;;;;;;;8.40;3.00;;;;;;;10.39;81.60;99874.73;1657353;85;28078;-73
2021/05/23 03:44:21;;;;;;;9.38;2.98;;;;;;;10.40;81.54;99875.03;1656932;85;25700;-73
2021/05/23 03:46:47;;;;;;;8.43;2.83;;;;;;;10.42;81.49;99880.06;1658003;85;34652;-72
2021/05/23 03:49:13;;;;;;;8.35;2.85;;;;;;;10.41;81.52;99881.88;1658303;85;25553;-71
2021/05/23 03:51:39;;;;;;;5.67;3.00;;;;;;;10.41;81.44;99881.88;1657514;85;25619;-72
2021/05/23 03:54:07;;;;;;;4.85;2.60;;;;;;;10.42;81.48;99879.59;1657321;85;25604;-72
2021/05/23 03:56:33;;;;;;;5.37;2.55;;;;;;;10.46;81.57;99876.12;1656700;85;25910;-72
2021/05/23 03:58:59;;;;;;;8.08;2.80;;;;;;;10.49;81.56;99881.00;1655754;85;25244;-73
2021/05/23 04:01:25;;;;;;;7.58;3.08;;;;;;;10.54;81.64;99874.75;1657881;85;32946;-74
2021/05/23 04:03:56;;;;;;;5.00;2.57;;;;;;;10.60;81.75;99876.65;1658568;85;25935;-72
2021/05/23 04:06:18;;;;;;;7.20;2.85;;;;;;;10.66;81.24;99881.66;1659050;85;25696;-74
2021/05/23 04:08:44;;;;;;;9.30;2.37;;;;;;;10.69;81.39;99878.69;1656960;85;26459;-74
2021/05/23 04:11:16;;;;;;;8.23;2.70;;;;;;;10.73;81.36;99881.28;1656984;85;35215;-74
2021/05/23 04:13:41;;;;;;;7.62;2.98;;;;;;;10.78;81.22;99880.76;1657254;85;26383;-73
2021/05/23 04:16:14;;;;;;;5.55;2.30;;;;;;;10.84;81.07;99883.45;1657807;85;25586;-74
2021/05/23 04:18:40;;;;;;;5.80;2.95;;;;;;;10.89;81.11;99877.20;1657751;85;25509;-74
2021/05/23 04:21:06;;;;;;;5.58;2.62;;;;;;;10.93;81.00;99882.88;1657053;85;25623;-74
2021/05/23 04:23:33;;;;;;;6.60;2.52;;;;;;;10.97;81.01;99878.92;1656117;85;34644;-74
2021/05/23 04:26:00;;;;;;;9.05;3.08;;;;;;;11.04;81.01;99879.81;1639080;85;25624;-74
2021/05/23 04:28:26;;;;;;;6.30;2.80;;;;;;;11.09;80.78;99875.36;1656992;85;25624;-74
2021/05/23 04:30:53;;;;;;;5.85;2.65;;;;;;;11.14;80.86;99880.06;1658601;85;25566;-74
2021/05/23 04:33:19;;;;;;;5.30;2.47;;;;;;;11.15;80.62;99887.70;1658030;85;25700;-74
2021/05/23 04:35:45;;;;;;;7.08;2.60;;;;;;;11.14;79.91;99892.64;1658232;85;25668;-74
2021/05/23 04:38:12;;;;;;;6.10;2.72;;;;;;;11.16;80.19;99893.75;1658386;85;25263;-74
2021/05/23 04:40:38;;;;;;;6.50;2.30;;;;;;;11.20;80.20;99901.06;1656755;85;25621;-75
2021/05/23 04:43:04;;;;;;;5.63;2.17;;;;;;;11.26;80.20;99897.72;1641826;85;29995;-74
2021/05/23 04:45:31;;;;;;;11.93;2.80;;;;;;;11.33;80.29;99903.86;1656410;85;27439;-74
2021/05/23 04:47:57;;;;;;;6.92;2.52;;;;;;;11.41;80.11;99913.94;1656683;85;25544;-74
2021/05/23 04:50:23;;;;;;;9.43;2.75;;;;;;;11.47;79.88;99918.44;1656905;85;32372;-74
2021/05/23 04:52:49;;;;;;;6.87;2.92;;;;;;;11.52;79.46;99923.94;1657210;85;25605;-74
2021/05/23 04:55:15;;;;;;;6.25;2.65;;;;;;;11.59;79.43;99929.24;1657332;85;25723;-75
2021/05/23 04:57:42;;;;;;;5.33;2.47;;;;;;;11.66;79.25;99932.27;1656004;85;25555;-75
2021/05/23 05:00:11;;;;;;;7.05;2.50;;;;;;;11.72;79.09;99928.91;1656768;85;26332;-74
2021/05/23 05:02:40;;;;;;;9.13;2.33;;;;;;;11.77;78.78;99928.38;1656478;85;25687;-75
2021/05/23 05:05:10;;;;;;;5.97;2.25;;;;;;;11.85;78.81;99934.00;1657236;85;26151;-74
2021/05/23 05:07:36;;;;;;;8.93;2.80;;;;;;;11.92;78.43;99928.36;1658640;85;25729;-72
2021/05/23 05:10:04;;;;;;;7.62;2.75;;;;;;;12.02;78.78;99926.77;1657899;85;25547;-73
2021/05/23 05:12:29;;;;;;;10.30;2.75;;;;;;;12.09;78.08;99928.47;1657500;85;25524;-73
2021/05/23 05:14:55;;;;;;;6.72;2.98;;;;;;;12.16;78.00;99927.21;1657587;85;25588;-73
2021/05/23 05:17:22;;;;;;;4.05;2.50;;;;;;;12.23;77.71;99926.79;1657072;85;25653;-73
2021/05/23 05:19:48;;;;;;;4.03;2.05;;;;;;;12.30;77.10;99926.84;1656620;85;25595;-75
2021/05/23 05:22:14;;;;;;;8.93;2.55;;;;;;;12.38;77.28;99924.09;1658029;85;25651;-74
2021/05/23 05:24:40;;;;;;;5.28;1.87;;;;;;;12.47;77.23;99928.23;1658921;85;25589;-75
2021/05/23 05:27:06;;;;;;;8.95;2.60;;;;;;;12.55;76.77;99929.89;1657208;85;25842;-75
2021/05/23 05:29:32;;;;;;;5.87;2.17;;;;;;;12.62;77.21;99927.64;1656335;85;25557;-75
2021/05/23 05:31:59;;;;;;;4.58;1.87;;;;;;;12.72;76.07;99931.27;1654012;85;25588;-74
2021/05/23 05:34:25;;;;;;;6.80;2.05;;;;;;;12.81;76.53;99937.18;1654163;85;25703;-73
2021/05/23 05:36:51;;;;;;;3.83;2.08;;;;;;;12.89;75.94;99943.59;1653596;85;34622;-73
2021/05/23 05:39:17;;;;;;;5.15;1.90;;;;;;;12.93;73.57;99937.46;1656961;85;32656;-73
2021/05/23 05:41:43;;;;;;;4.00;1.70;;;;;;;12.99;74.14;99936.72;1652439;85;25739;-73
2021/05/23 05:44:09;;;;;;;3.95;1.92;;;;;;;13.08;74.00;99935.05;1656044;85;25259;-74
2021/05/23 05:46:35;;;;;;;4.77;1.70;;;;;;;13.17;73.62;99952.77;1654998;85;30337;-73
2021/05/23 05:49:02;;;;;;;4.78;1.70;;;;;;;13.24;73.31;99949.70;1658530;85;35136;-73
2021/05/23 05:51:27;;;;;;;7.47;2.05;;;;;;;13.33;72.59;99947.75;1658980;85;25692;-73
2021/05/23 05:53:53;;;;;;;6.25;2.05;;;;;;;13.42;72.29;99945.78;1654475;85;25856;-73
2021/05/23 05:56:20;;;;;;;5.07;2.03;;;;;;;13.52;72.70;99945.73;1655369;85;31338;-74
2021/05/23 05:58:47;;;;;;;5.58;1.92;;;;;;;13.55;70.23;99947.97;1652022;85;26495;-74
2021/05/23 06:01:13;;;;;;;8.68;2.25;;;;;;;13.60;70.26;99951.84;1654983;85;25520;-73
2021/05/23 06:03:39;;;;;;;6.67;2.05;;;;;;;13.59;67.87;99948.41;1651416;85;25629;-73
2021/05/23 06:06:05;;;;;;;5.63;1.70;;;;;;;13.60;69.72;99947.91;1655231;85;25501;-72
2021/05/23 06:08:31;;;;;;;3.55;1.70;;;;;;;13.64;68.90;99946.02;1649508;85;25562;-73
2021/05/23 06:10:58;;;;;;;4.73;1.90;;;;;;;13.64;68.94;99943.87;1655023;85;29368;-73
2021/05/23 06:13:23;;;;;;;5.85;2.20;;;;;;;13.65;69.02;99948.13;1654605;85;25788;-72
2021/05/23 06:15:49;;;;;;;5.55;1.52;;;;;;;13.69;68.62;99943.59;1648621;85;32749;-72
2021/05/23 06:18:16;;;;;;;6.87;1.98;;;;;;;13.75;68.83;99940.20;1654710;85;25654;-72
2021/05/23 06:20:42;;;;;;;5.37;1.67;;;;;;;13.81;68.68;99947.00;1655404;85;25695;-72
2021/05/23 06:23:08;;;;;;;6.47;1.63;;;;;;;13.89;68.83;99946.83;1654596;85;30228;-73
2021/05/23 06:25:33;;;;;;;4.28;2.17;;;;;;;13.94;67.12;99949.16;1651584;85;25744;-73
2021/05/23 06:27:59;;;;;;;4.03;1.65;;;;;;;13.99;65.44;99953.33;1652056;85;32198;-74
2021/05/23 06:30:25;;;;;;;8.08;1.95;;;;;;;14.02;67.12;99948.66;1654511;85;25677;-73
2021/05/23 06:32:51;;;;;;;4.62;1.70;;;;;;;14.10;67.17;99955.05;1653254;85;26161;-74
2021/05/23 06:35:17;;;;;;;4.30;1.57;;;;;;;14.15;67.01;99955.28;1654169;85;31223;-74
2021/05/23 06:37:45;;;;;;;6.08;1.62;;;;;;;14.21;65.92;99955.31;1652457;85;25541;-73
2021/05/23 06:40:12;;;;;;;4.45;1.70;;;;;;;14.31;66.84;99952.28;1656370;85;25477;-74
2021/05/23 06:42:39;;;;;;;5.15;1.55;;;;;;;14.41;66.20;99960.59;1654783;85;26357;-72
2021/05/23 06:45:07;;;;;;;8.43;1.72;;;;;;;14.39;65.43;99969.19;1652233;85;25982;-72
2021/05/23 06:47:33;;;;;;;4.75;1.72;;;;;;;14.35;64.31;99973.72;1654346;85;25724;-74
2021/05/23 06:49:59;;;;;;;5.85;1.75;;;;;;;14.32;65.10;99965.75;1654099;84;25660;-74
2021/05/23 06:52:26;;;;;;;4.97;1.35;;;;;;;14.32;63.95;99971.48;1668702;84;25696;-73
2021/05/23 06:54:52;;;;;;;6.85;1.60;;;;;;;14.34;64.69;99966.34;1661759;85;25596;-74
2021/05/23 06:57:18;;;;;;;7.15;1.82;;;;;;;14.42;64.82;99963.52;1661993;85;25601;-74
2021/05/23 06:59:44;;;;;;;4.67;1.53;;;;;;;14.56;65.39;99957.00;1662806;85;29522;-74
2021/05/23 07:02:10;;;;;;;5.10;1.85;;;;;;;14.66;65.30;99967.95;1655622;84;34667;-74
2021/05/23 07:04:36;;;;;;;3.85;1.62;;;;;;;14.73;64.79;99966.62;1662828;85;32346;-72
2021/05/23 07:07:02;;;;;;;2.87;1.15;;;;;;;14.73;63.96;99975.34;1660949;85;25685;-73
2021/05/23 07:09:28;;;;;;;4.10;1.50;;;;;;;14.74;65.00;99972.20;1661097;85;25599;-73
2021/05/23 07:11:54;;;;;;;5.70;1.70;;;;;;;14.77;63.19;99971.80;1661865;85;31233;-72
2021/05/23 07:14:20;;;;;;;3.40;1.40;;;;;;;14.83;64.53;99974.41;1658714;85;34758;-73
2021/05/23 07:16:46;;;;;;;4.50;1.40;;;;;;;14.85;62.56;99974.23;1660343;85;25663;-72
2021/05/23 07:19:12;;;;;;;4.75;1.25;;;;;;;14.84;62.79;99976.53;1660741;85;25708;-72
2021/05/23 07:21:38;;;;;;;3.02;1.17;;;;;;;14.84;62.16;99986.58;1662538;84;26608;-73
2021/05/23 07:24:05;;;;;;;3.20;1.27;;;;;;;14.85;62.82;99984.24;1659770;84;30953;-72
2021/05/23 07:26:31;;;;;;;3.30;1.47;;;;;;;14.90;62.08;99993.37;1660509;85;25487;-74
2021/05/23 07:28:57;;;;;;;5.47;1.27;;;;;;;14.91;62.27;99989.20;1663188;85;25621;-74
2021/05/23 07:31:23;;;;;;;3.22;1.37;;;;;;;14.97;61.66;99999.42;1659615;85;25524;-73
2021/05/23 07:33:50;;;;;;;4.95;1.50;;;;;;;14.99;62.20;99999.52;1661386;85;25756;-74
2021/05/23 07:36:15;;;;;;;5.70;1.70;;;;;;;15.09;62.33;100005.20;1656389;84;25754;-73
2021/05/23 07:38:41;;;;;;;5.20;1.42;;;;;;;15.17;63.00;100005.98;1659166;85;35186;-74
2021/05/23 07:41:08;;;;;;;4.55;1.30;;;;;;;15.21;62.78;100009.84;1656857;84;25573;-74
2021/05/23 07:43:34;;;;;;;4.70;1.40;;;;;;;15.22;61.65;100005.70;1657107;85;25674;-74
2021/05/23 07:46:00;;;;;;;2.42;1.10;;;;;;;15.26;62.47;100020.58;1655973;85;25718;-74
2021/05/23 07:48:26;;;;;;;3.77;1.35;;;;;;;15.33;61.92;100022.68;1655404;85;25641;-73
2021/05/23 07:50:52;;;;;;;2.35;0.98;;;;;;;15.35;61.41;100017.22;1657273;85;25560;-73
2021/05/23 07:53:18;;;;;;;3.87;1.00;;;;;;;15.41;60.89;100026.42;1656272;85;25205;-74
2021/05/23 07:55:45;;;;;;;5.15;1.25;;;;;;;15.43;59.90;100020.96;1656144;85;26177;-73
2021/05/23 07:58:11;;;;;;;2.83;1.10;;;;;;;15.45;59.49;100029.47;1653857;84;25207;-73
2021/05/23 08:00:37;;;;;;;3.75;1.20;;;;;;;15.53;60.33;100026.63;1651098;84;26240;-74
2021/05/23 08:03:03;;;;;;;3.27;1.40;;;;;;;15.63;60.02;100020.43;1651752;84;25468;-74
2021/05/23 08:05:29;;;;;;;2.27;1.07;;;;;;;15.71;58.96;100017.60;1650080;84;25568;-74
2021/05/23 08:07:56;;;;;;;4.58;2.02;;;;;;;15.73;58.22;100025.28;1653052;84;25526;-74
2021/05/23 08:10:22;;;;;;;6.62;1.27;;;;;;;15.82;59.64;100028.50;1652227;84;25589;-74
2021/05/23 08:12:49;;;;;;;5.60;2.22;;;;;;;15.89;57.09;100036.69;1653992;84;25594;-74
2021/05/23 08:15:15;;;;;;;4.20;1.40;;;;;;;15.87;57.51;100035.27;1654318;84;35167;-73
2021/05/23 08:17:44;;;;;;;5.83;1.32;;;;;;;15.83;57.15;100055.98;1652652;84;26215;-74
2021/05/23 08:20:12;;;;;;;6.90;2.05;;;;;;;15.82;57.97;100049.06;1652526;84;25721;-74
2021/05/23 08:22:39;;;;;;;5.80;1.60;;;;;;;15.82;57.04;100050.39;1651337;84;25194;-73
2021/05/23 08:25:07;;;;;;;5.37;1.62;;;;;;;15.80;57.59;100049.80;1652870;84;25903;-74
2021/05/23 08:27:33;;;;;;;2.75;1.50;;;;;;;15.87;58.83;100051.09;1651447;84;25549;-74
2021/05/23 08:30:00;;;;;;;2.95;1.07;;;;;;;15.96;58.52;100047.23;1646539;86;25519;-74
2021/05/23 08:32:26;;;;;;;4.87;1.10;;;;;;;16.04;56.72;100044.36;1648364;85;25666;-74
2021/05/23 08:34:52;;;;;;;5.30;1.05;;;;;;;16.07;56.57;100044.42;1644513;85;25264;-75
2021/05/23 08:37:18;;;;;;;4.42;0.93;;;;;;;16.14;57.22;100044.70;1646649;85;32569;-75
2021/05/23 08:39:47;;;;;;;5.90;0.90;;;;;;;16.27;55.63;100034.62;1668714;84;25228;-75
2021/05/23 08:42:13;;;;;;;3.15;1.32;;;;;;;16.37;55.83;100047.37;1602274;86;26365;-75
2021/05/23 08:44:38;;;;;;;4.83;0.95;;;;;;;16.40;55.91;100045.62;1656614;84;25633;-73
2021/05/23 08:47:05;;;;;;;2.25;1.00;;;;;;;16.46;56.45;100047.92;1665458;84;33103;-73
2021/05/23 08:49:31;;;;;;;2.17;1.00;;;;;;;16.54;55.76;100049.00;1629302;86;25424;-74
2021/05/23 08:51:58;;;;;;;1.17;0.75;;;;;;;16.59;54.58;100049.98;1638513;86;25418;-74
2021/05/23 08:54:24;;;;;;;1.98;1.02;;;;;;;16.59;54.01;100056.58;1637094;86;25205;-75
2021/05/23 08:56:51;;;;;;;3.50;1.57;;;;;;;16.59;53.13;100055.25;1641163;86;25729;-74
2021/05/23 08:59:18;;;;;;;5.60;1.50;;;;;;;16.60;53.69;100050.27;1665014;84;25565;-75
2021/05/23 09:01:45;;;;;;;3.70;1.40;;;;;;;16.64;54.34;100050.16;1657796;85;25230;-75
2021/05/23 09:04:18;;;;;;;2.65;0.90;;;;;;;16.71;53.38;100067.25;1656902;84;25539;-76
2021/05/23 09:06:46;;;;;;;4.35;1.55;;;;;;;16.70;54.08;100056.93;1655737;85;26115;-74
2021/05/23 09:09:15;;;;;;;2.85;1.20;;;;;;;16.74;53.27;100062.06;1657935;85;26307;-74
2021/05/23 09:11:54;;;;;;;4.50;1.60;;;;;;;16.76;54.35;100066.11;1656631;85;26135;-75
2021/05/23 09:14:38;;;;;;;3.25;1.00;;;;;;;16.78;53.07;100062.78;1655869;85;25655;-74
2021/05/23 09:17:06;;;;;;;3.10;1.40;;;;;;;16.76;53.48;100059.52;1660234;85;25567;-73
2021/05/23 09:19:43;;;;;;;3.25;1.00;;;;;;;16.83;54.35;100070.87;1661007;85;25684;-74
2021/05/23 09:22:15;;;;;;;4.55;1.15;;;;;;;16.92;54.17;100070.11;1661980;84;25725;-73
2021/05/23 09:24:56;;;;;;;4.65;1.35;;;;;;;16.94;53.07;100072.03;1661182;85;25634;-74
2021/05/23 09:27:26;;;;;;;2.47;1.25;;;;;;;16.97;53.56;100065.48;1663088;85;25724;-74
2021/05/23 09:30:07;;;;;;;;;;;;;;;16.96;54.83;100059.92;1663041;85;25248;-74
2021/05/23 09:32:44;;;;;;;7.62;3.55;;;;;;;17.02;52.95;100049.81;1662066;85;25664;-74
2021/05/23 09:35:11;;;;;;;13.70;8.15;;;;;;;17.01;53.39;100046.88;1658620;85;25825;-74
2021/05/23 09:37:38;;;;;;;10.82;6.00;;;;;;;17.13;54.66;100055.71;1662236;85;26324;-74
2021/05/23 09:40:21;;;;;;;8.80;4.20;;;;;;;17.31;54.27;100062.89;1662830;85;25589;-74
2021/05/23 09:42:50;;;;;;;13.85;7.53;;;;;;;17.32;53.74;100064.50;1660481;85;25507;-74
2021/05/23 09:45:18;;;;;;;5.95;2.50;;;;;;;17.25;53.54;100069.05;1663108;85;32252;-74
2021/05/23 09:47:56;;;;;;;5.40;2.40;;;;;;;17.19;52.81;100069.40;1662393;85;25675;-73
2021/05/23 09:50:41;;;;;;;5.20;1.27;;;;;;;17.11;53.04;100070.19;1663909;85;25687;-74
2021/05/23 09:53:23;;;;;;;8.75;3.33;;;;;;;17.04;53.51;100071.53;1665838;84;25545;-73
2021/05/23 09:56:05;;;;;;;8.40;2.70;;;;;;;17.01;53.63;100072.77;1658480;84;25568;-72
2021/05/23 09:58:45;;;;;;;5.03;2.45;;;;;;;17.02;54.29;100061.20;1660117;84;25637;-73
2021/05/23 10:01:31;;;;;;;6.95;2.70;;;;;;;17.03;52.96;100075.21;1660202;84;26385;-74
2021/05/23 10:03:58;;;;;;;2.90;1.40;;;;;;;16.98;53.09;100075.05;1659510;84;25802;-74
2021/05/23 10:06:31;;;;;;;9.60;5.25;;;;;;;16.89;52.96;100075.81;1694645;83;25792;-74
2021/05/23 10:08:58;;;;;;;6.05;3.08;;;;;;;16.83;53.91;100069.56;1694286;83;25414;-74
2021/05/23 10:11:26;;;;;;;5.42;2.33;;;;;;;16.98;54.11;100065.28;1694141;83;25761;-74
2021/05/23 10:13:52;;;;;;;3.52;1.87;;;;;;;17.05;52.45;100072.66;1695693;83;25663;-74
2021/05/23 10:16:19;;;;;;;3.08;1.40;;;;;;;17.14;53.01;100082.95;1694594;83;25774;-75
2021/05/23 10:18:48;;;;;;;5.40;2.35;;;;;;;17.21;52.48;100079.73;1673406;83;25866;-75
2021/05/23 10:21:15;;;;;;;6.03;2.08;;;;;;;17.25;53.22;100075.66;1680281;83;26231;-75
2021/05/23 10:23:54;;;;;;;6.72;2.90;;;;;;;17.46;53.46;100070.47;1694361;83;25754;-75
2021/05/23 10:26:25;;;;;;;2.90;1.20;;;;;;;17.52;52.40;100070.42;1695476;83;25523;-75
2021/05/23 10:28:53;;;;;;;6.15;1.40;;;;;;;17.50;52.64;100094.13;1693985;83;25689;-75
2021/05/23 10:31:32;;;;;;;4.33;1.77;;;;;;;17.39;52.78;100089.04;1696088;83;25269;-75
2021/05/23 10:33:58;;;;;;;5.80;2.15;;;;;;;17.31;53.19;100080.06;1695683;83;25532;-75
2021/05/23 10:36:39;;;;;;;5.60;1.30;;;;;;;17.38;53.27;100082.15;1697594;83;32405;-75
2021/05/23 10:39:13;;;;;;;4.37;2.17;;;;;;;17.46;52.98;100083.20;1697851;83;25541;-74
2021/05/23 10:41:41;;;;;;;3.12;1.10;;;;;;;17.47;52.42;100083.48;1697031;83;25622;-73
2021/05/23 10:44:11;;;;;;;7.67;2.02;;;;;;;17.54;51.29;100084.73;1697373;83;25525;-73
2021/05/23 10:46:50;;;;;;;4.75;1.17;;;;;;;17.63;51.67;100075.52;1697547;83;25647;-73
2021/05/23 10:49:17;;;;;;;3.67;1.32;;;;;;;17.84;51.11;100086.71;1696648;83;25175;-74
2021/05/23 10:51:55;;;;;;;2.83;1.10;;;;;;;17.95;51.08;100080.69;1696524;83;26125;-74
2021/05/23 10:54:21;;;;;;;2.33;1.00;;;;;;;18.00;51.54;100090.09;1697527;83;25771;-74
2021/05/23 10:57:04;;;;;;;6.37;1.47;;;;;;;18.11;50.14;100101.78;1696439;83;25731;-74
2021/05/23 10:59:31;;;;;;;3.70;1.22;;;;;;;18.01;50.85;100093.05;1698419;83;25597;-74
2021/05/23 11:01:57;;;;;;;1.75;0.90;;;;;;;17.93;51.12;100101.28;1696249;83;25468;-75
2021/05/23 11:04:28;;;;;;;5.12;1.85;;;;;;;17.88;51.26;100100.61;1698050;83;25749;-75
2021/05/23 11:06:54;;;;;;;4.70;1.70;;;;;;;17.93;51.76;100109.22;1692800;83;25518;-75
2021/05/23 11:09:23;;;;;;;4.58;1.00;;;;;;;18.05;50.81;100116.70;1676861;83;32556;-75
2021/05/23 11:11:49;;;;;;;2.95;1.20;;;;;;;18.04;50.79;100095.25;1697248;83;25534;-74
2021/05/23 11:14:24;;;;;;;5.37;1.32;;;;;;;18.13;50.25;100112.44;1695493;83;25198;-75
2021/05/23 11:16:54;;;;;;;5.20;1.20;;;;;;;18.19;50.94;100089.06;1695554;83;26328;-74
2021/05/23 11:19:22;;;;;;;4.53;0.98;;;;;;;18.31;50.80;100089.66;1695652;83;33171;-74
2021/05/23 11:21:51;;;;;;;4.05;1.40;;;;;;;18.33;48.60;100087.09;1698017;83;25904;-75
2021/05/23 11:24:19;;;;;;;3.85;1.25;;;;;;;18.15;48.56;100093.71;1692267;83;26521;-75
2021/05/23 11:26:45;;;;;;;2.87;0.72;;;;;;;17.99;49.69;100093.78;1697266;83;25266;-74
2021/05/23 11:29:11;;;;;;;3.90;0.88;;;;;;;17.99;48.65;100086.37;1695330;83;25697;-75
2021/05/23 11:31:48;;;;;;;2.85;1.32;;;;;;;18.08;48.46;100094.29;1696358;83;25626;-75
2021/05/23 11:34:20;;;;;;;3.33;1.00;;;;;;;18.19;49.42;100094.87;1695261;83;25503;-74
2021/05/23 11:36:47;;;;;;;2.60;1.10;;;;;;;18.27;49.86;100101.70;1698310;83;25593;-75